createdAt,value
2023-04-04T00:02:48.023Z,5.65
2023-04-04T00:07:52.622Z,5.20
2023-04-04T00:12:55.848Z,5.56
2023-04-04T00:17:58.640Z,5.36
2023-04-04T00:23:03.160Z,5.38
2023-04-04T00:28:06.499Z,5.51
2023-04-04T00:33:09.378Z,5.98
2023-04-04T00:38:13.563Z,5.99
2023-04-04T00:43:16.958Z,5.83
2023-04-04T00:48:21.332Z,5.75
2023-04-04T00:53:25.982Z,5.63
2023-04-04T00:58:28.890Z,5.40
2023-04-04T01:03:32.104Z,5.54
2023-04-04T01:08:38.631Z,5.27
2023-04-04T01:13:43.121Z,5.59
2023-04-04T01:18:51.519Z,5.66
2023-04-04T01:24:01.229Z,5.82
2023-04-04T01:29:31.566Z,5.69
2023-04-04T01:34:44.275Z,5.82
2023-04-04T01:39:50.669Z,5.87
2023-04-04T01:44:57.800Z,5.87
2023-04-04T01:50:08.963Z,5.74
2023-04-04T01:55:12.420Z,6.04
2023-04-04T02:00:17.195Z,5.97
2023-04-04T02:05:20.050Z,6.24
2023-04-04T02:10:23.046Z,6.28
2023-04-04T02:15:27.722Z,6.09
2023-04-04T02:20:31.003Z,5.93
2023-04-04T02:25:33.837Z,5.56
2023-04-04T02:30:38.194Z,5.87
2023-04-04T02:35:41.354Z,6.05
2023-04-04T02:40:46.711Z,6.14
2023-04-04T02:45:51.606Z,6.07
2023-04-04T02:51:00.020Z,6.19
2023-04-04T02:56:03.695Z,6.24
2023-04-04T03:01:08.232Z,6.07
2023-04-04T03:06:14.844Z,6.00
2023-04-04T03:11:18.883Z,5.85
2023-04-04T03:16:24.136Z,6.12
2023-04-04T03:21:28.509Z,6.11
2023-04-04T03:26:33.508Z,6.07
2023-04-04T03:31:37.617Z,5.91
2023-04-04T03:36:40.871Z,5.75
2023-04-04T03:41:43.612Z,5.54
2023-04-04T03:46:47.731Z,5.79
2023-04-04T03:51:50.602Z,5.85
2023-04-04T03:56:53.545Z,5.41
2023-04-04T04:01:57.697Z,5.98
2023-04-04T04:07:02.245Z,5.82
2023-04-04T04:12:05.424Z,5.87
2023-04-04T04:17:09.667Z,6.07
2023-04-04T04:22:12.538Z,5.94
2023-04-04T04:27:15.407Z,5.90
2023-04-04T04:32:20.917Z,6.01
2023-04-04T04:37:28.521Z,5.53
2023-04-04T04:42:33.586Z,5.58
2023-04-04T04:47:39.803Z,5.67
2023-04-04T04:52:46.107Z,5.70
2023-04-04T04:57:50.184Z,5.96
2023-04-04T05:03:00.575Z,5.80
2023-04-04T05:08:12.983Z,6.07
2023-04-04T05:13:27.555Z,6.14
2023-04-04T05:18:32.115Z,6.30
2023-04-04T05:23:35.652Z,6.23
2023-04-04T05:28:38.592Z,6.33
2023-04-04T05:33:45.399Z,6.80
2023-04-04T05:38:53.937Z,6.92
2023-04-04T05:44:00.517Z,7.36
2023-04-04T05:49:05.859Z,7.47
2023-04-04T05:54:10.503Z,7.11
2023-04-04T05:59:21.353Z,7.56
2023-04-04T06:04:31.793Z,7.89
2023-04-04T06:09:37.336Z,10.35
2023-04-04T06:14:41.090Z,14.38
2023-04-04T06:19:46.174Z,15.94
2023-04-04T06:24:48.950Z,17.39
2023-04-04T06:29:52.660Z,16.34
2023-04-04T06:34:58.306Z,16.35
2023-04-04T06:40:15.252Z,19.34
2023-04-04T06:45:19.283Z,20.87
2023-04-04T06:50:24.020Z,22.52
2023-04-04T06:55:28.438Z,23.47
2023-04-04T07:00:31.625Z,22.89
2023-04-04T07:05:39.432Z,23.66
2023-04-04T07:10:42.702Z,25.20
2023-04-04T07:15:49.158Z,24.28
2023-04-04T07:20:53.322Z,21.51
2023-04-04T07:25:56.160Z,24.39
2023-04-04T07:31:01.849Z,22.93
2023-04-04T07:36:06.460Z,22.51
2023-04-04T07:41:09.793Z,22.71
2023-04-04T07:46:12.646Z,20.51
2023-04-04T07:51:16.719Z,20.12
2023-04-04T07:56:19.513Z,18.84
2023-04-04T08:01:22.369Z,15.70
2023-04-04T08:06:27.189Z,13.17
2023-04-04T08:11:29.934Z,11.71
2023-04-04T08:16:33.259Z,11.83
2023-04-04T08:21:37.454Z,11.43
2023-04-04T08:26:40.223Z,12.36
2023-04-04T08:31:43.278Z,12.37
2023-04-04T08:36:47.462Z,12.89
2023-04-04T08:41:58.707Z,12.27
2023-04-04T08:47:05.206Z,12.28
2023-04-04T08:52:12.610Z,12.07
2023-04-04T08:57:15.650Z,12.02
2023-04-04T09:02:25.258Z,11.87
2023-04-04T09:07:31.053Z,12.17
2023-04-04T09:12:37.267Z,12.06
2023-04-04T09:17:40.686Z,11.11
2023-04-04T09:22:47.280Z,11.86
2023-04-04T09:27:50.082Z,12.51
2023-04-04T09:32:54.153Z,12.33
2023-04-04T09:37:58.720Z,11.83
2023-04-04T09:43:02.429Z,13.40
2023-04-04T09:48:07.599Z,13.01
2023-04-04T09:53:18.112Z,12.60
2023-04-04T09:58:25.672Z,13.21
2023-04-04T10:03:29.584Z,13.28
2023-04-04T10:08:34.527Z,13.44
2023-04-04T10:13:40.980Z,13.97
2023-04-04T10:18:44.818Z,13.51
2023-04-04T10:23:50.558Z,12.70
2023-04-04T10:28:53.376Z,12.67
2023-04-04T10:34:08.305Z,12.41
2023-04-04T10:39:16.121Z,12.31
2023-04-04T10:44:24.625Z,12.64
2023-04-04T10:49:29.708Z,12.94
2023-04-04T10:54:34.707Z,12.88
2023-04-04T10:59:57.486Z,12.47
2023-04-04T11:05:12.188Z,12.71
2023-04-04T11:10:22.074Z,13.40
2023-04-04T11:15:26.246Z,13.40
2023-04-04T11:20:34.466Z,13.92
2023-04-04T11:25:40.635Z,13.30
2023-04-04T11:30:48.594Z,13.50
2023-04-04T11:35:51.546Z,15.24
2023-04-04T11:40:56.516Z,15.34
2023-04-04T11:46:08.963Z,13.81
2023-04-04T11:51:12.757Z,13.45
2023-04-04T11:56:17.979Z,14.54
2023-04-04T12:01:21.659Z,14.57
2023-04-04T12:06:25.438Z,15.08
2023-04-04T12:11:32.093Z,14.47
2023-04-04T12:16:37.174Z,14.63
2023-04-04T12:21:40.267Z,14.05
2023-04-04T12:26:47.023Z,13.66
2023-04-04T12:31:51.270Z,13.82
2023-04-04T12:36:54.587Z,14.85
2023-04-04T12:42:03.565Z,14.65
2023-04-04T12:47:08.375Z,14.52
2023-04-04T12:52:20.547Z,14.06
2023-04-04T12:57:26.623Z,15.65
2023-04-04T13:02:31.546Z,14.63
2023-04-04T13:07:42.827Z,14.87
2023-04-04T13:12:58.627Z,14.55
2023-04-04T13:18:14.924Z,15.06
2023-04-04T13:23:18.076Z,14.91
2023-04-04T13:28:22.199Z,13.99
2023-04-04T13:33:25.060Z,13.44
2023-04-04T13:38:28.217Z,14.47
2023-04-04T13:43:32.419Z,14.55
2023-04-04T13:48:35.205Z,14.34
2023-04-04T13:53:37.941Z,14.56
2023-04-04T13:58:42.076Z,14.27
2023-04-04T14:03:45.074Z,13.88
2023-04-04T14:08:47.890Z,14.10
2023-04-04T14:13:52.218Z,14.11
2023-04-04T14:18:54.988Z,13.07
2023-04-04T14:23:57.793Z,13.23
2023-04-04T14:29:01.912Z,13.40
2023-04-04T14:34:05.699Z,12.65
2023-04-04T14:39:08.479Z,13.19
2023-04-04T14:44:13.053Z,12.85
2023-04-04T14:49:15.895Z,13.20
2023-04-04T14:54:18.640Z,12.93
2023-04-04T14:59:22.967Z,12.35
2023-04-04T15:04:26.225Z,12.50
2023-04-04T15:09:30.165Z,12.32
2023-04-04T15:14:34.334Z,12.66
2023-04-04T15:19:37.213Z,12.68
2023-04-04T15:24:40.138Z,12.95
2023-04-04T15:29:44.763Z,13.59
2023-04-04T15:34:47.530Z,12.35
2023-04-04T15:39:53.328Z,13.14
2023-04-04T15:44:58.587Z,13.01
2023-04-04T15:50:02.192Z,13.21
2023-04-04T15:55:07.809Z,12.80
2023-04-04T16:00:14.064Z,12.72
2023-04-04T16:05:17.062Z,12.62
2023-04-04T16:10:19.862Z,12.26
2023-04-04T16:15:24.086Z,12.34
2023-04-04T16:20:27.633Z,11.96
2023-04-04T16:25:30.558Z,11.53
2023-04-04T16:30:35.316Z,11.39
2023-04-04T16:35:39.767Z,10.94
2023-04-04T16:40:44.056Z,10.98
2023-04-04T16:45:48.438Z,10.87
2023-04-04T16:50:51.355Z,10.66
2023-04-04T16:56:07.036Z,10.64
2023-04-04T17:01:14.091Z,10.64
2023-04-04T17:06:22.476Z,10.68
2023-04-04T17:11:26.386Z,10.69
2023-04-04T17:16:30.718Z,10.32
2023-04-04T17:21:33.601Z,10.10
2023-04-04T17:26:36.594Z,10.55
2023-04-04T17:31:43.358Z,10.23
2023-04-04T17:36:46.346Z,10.38
2023-04-04T17:41:49.783Z,10.24
2023-04-04T17:46:55.336Z,10.22
2023-04-04T17:51:58.278Z,9.96
2023-04-04T18:22:56.230Z,10.14
2023-04-04T18:28:28.843Z,10.01
2023-04-04T18:54:14.880Z,9.72
2023-04-04T18:59:18.635Z,9.63
2023-04-04T19:04:23.155Z,9.71
2023-04-04T19:09:29.021Z,9.55
2023-04-04T19:14:31.894Z,9.61
2023-04-04T19:19:34.710Z,9.35
2023-04-04T19:24:40.254Z,9.52
2023-04-04T19:29:43.300Z,9.55
2023-04-04T19:34:47.847Z,9.63
2023-04-04T19:39:52.056Z,9.36
2023-04-04T19:44:54.995Z,9.39
2023-04-04T19:49:58.387Z,9.12
2023-04-04T19:55:03.482Z,9.04
2023-04-04T20:00:13.416Z,9.07
2023-04-04T20:06:02.474Z,8.88
2023-04-04T20:11:30.202Z,8.58
2023-04-04T20:16:33.317Z,8.72
2023-04-04T20:21:36.775Z,8.82
2023-04-04T20:26:55.607Z,8.84
2023-04-04T20:32:00.194Z,8.87
2023-04-04T20:37:08.634Z,8.96
2023-04-04T20:42:34.059Z,8.90
2023-04-04T20:47:44.839Z,8.95
2023-04-04T20:52:51.088Z,8.91
2023-04-04T20:57:57.867Z,8.69
2023-04-04T21:03:02.681Z,8.60
2023-04-04T21:08:29.756Z,8.60
2023-04-04T21:13:37.182Z,8.70
2023-04-04T21:18:41.499Z,8.82
2023-04-04T21:23:47.068Z,8.77
2023-04-04T21:28:51.320Z,8.80
2023-04-04T21:33:56.015Z,8.83
2023-04-04T21:39:00.656Z,8.65
2023-04-04T21:44:06.563Z,8.68
2023-04-04T21:49:10.227Z,8.68
2023-04-04T21:54:14.323Z,8.38
2023-04-04T21:59:18.568Z,8.50
2023-04-04T22:04:21.500Z,8.65
2023-04-04T22:09:25.836Z,8.62
2023-04-04T22:14:30.005Z,8.61
2023-04-04T22:19:43.163Z,8.67
2023-04-04T22:24:45.983Z,8.64
2023-04-04T22:29:50.054Z,8.58
2023-04-04T22:34:53.160Z,8.45
2023-04-04T22:39:56.018Z,8.33
2023-04-04T22:45:00.107Z,8.20
2023-04-04T22:50:04.837Z,7.83
2023-04-04T22:55:08.201Z,7.66
2023-04-04T23:00:14.707Z,7.66
2023-04-04T23:05:19.039Z,7.65
2023-04-04T23:10:22.480Z,7.49
2023-04-04T23:15:27.751Z,7.39
2023-04-04T23:20:32.140Z,7.43
2023-04-04T23:25:34.989Z,7.14
2023-04-04T23:30:39.704Z,6.90
2023-04-04T23:35:50.026Z,7.15
2023-04-04T23:40:53.877Z,6.93
2023-04-04T23:46:00.265Z,6.78
2023-04-04T23:51:04.108Z,6.80
2023-04-04T23:56:07.604Z,6.65
